Time;durP1;ratioP1;P1;durP2;ratioP2;P2;SDS_P1;SDS_P2;PMS_P1;PMS_P2;Temp;Humidity;BMP_temperature;BMP_pressure;BME280_temperature;BME280_humidity;BME280_pressure;Samples;Min_cycle;Max_cycle;Signal;HPM_P1;HPM_P2
2022/05/16 00:01:53;;;;;;;2.33;1.00;;;;;;;13.53;81.28;101558.22;5035491;28;20446;-72
2022/05/16 00:04:20;;;;;;;5.37;1.57;;;;;;;13.49;81.70;101557.19;5035319;28;20811;-72
2022/05/16 00:06:47;;;;;;;1.70;1.20;;;;;;;13.45;81.85;101551.53;5035320;28;20470;-73
2022/05/16 00:09:13;;;;;;;4.73;1.40;;;;;;;13.54;81.29;101552.47;5035432;28;20442;-72
2022/05/16 00:11:40;;;;;;;1.53;1.03;;;;;;;13.51;81.55;101557.72;5035420;28;20838;-73
2022/05/16 00:14:07;;;;;;;4.53;1.60;;;;;;;13.45;81.93;101550.72;5035306;28;20443;-73
2022/05/16 00:16:35;;;;;;;2.47;1.13;;;;;;;13.30;82.73;101549.84;5034891;28;20548;-72
2022/05/16 00:19:01;;;;;;;4.27;1.67;;;;;;;13.27;81.73;101555.88;5035010;28;20937;-73
2022/05/16 00:21:28;;;;;;;3.00;1.00;;;;;;;13.28;79.61;101562.13;5035339;28;20479;-73
2022/05/16 00:23:54;;;;;;;4.27;1.60;;;;;;;13.23;79.31;101556.75;5035225;28;20451;-72
2022/05/16 00:26:21;;;;;;;2.00;1.10;;;;;;;13.21;78.85;101553.50;5035131;28;20467;-72
2022/05/16 00:28:47;;;;;;;1.30;1.07;;;;;;;13.18;78.45;101546.72;5035074;28;20447;-73
2022/05/16 00:31:14;;;;;;;1.90;1.00;;;;;;;13.14;79.55;101556.59;5035054;28;20493;-72
2022/05/16 00:33:42;;;;;;;1.80;1.27;;;;;;;13.08;81.55;101557.78;5034653;28;20840;-71
2022/05/16 00:36:09;;;;;;;1.43;1.00;;;;;;;13.07;82.79;101556.97;5034897;28;20509;-68
2022/05/16 00:38:36;;;;;;;2.70;1.67;;;;;;;13.09;82.85;101552.03;5034857;28;20814;-67
2022/05/16 00:41:05;;;;;;;2.67;1.00;;;;;;;13.17;82.82;101564.16;5034397;28;20836;-67
2022/05/16 00:43:45;;;;;;;1.57;1.07;;;;;;;13.17;82.78;101560.66;5034719;28;20451;-67
2022/05/16 00:46:11;;;;;;;5.00;1.10;;;;;;;13.11;83.00;101560.72;5034699;28;20505;-68
2022/05/16 00:48:38;;;;;;;3.33;1.53;;;;;;;13.15;82.71;101563.66;5034613;28;20474;-68
2022/05/16 00:51:09;;;;;;;6.80;1.67;;;;;;;13.16;82.65;101564.47;5034612;28;20439;-68
2022/05/16 00:53:36;;;;;;;5.33;1.80;;;;;;;13.14;82.61;101562.84;5034431;28;20424;-68
2022/05/16 00:56:02;;;;;;;3.10;1.27;;;;;;;13.17;82.44;101561.44;5034014;28;20817;-68
2022/05/16 00:58:29;;;;;;;1.90;1.17;;;;;;;13.10;82.65;101567.28;5034156;28;20450;-68
2022/05/16 01:00:55;;;;;;;3.60;1.30;;;;;;;13.13;82.23;101557.69;5034162;28;20509;-68
2022/05/16 01:06:09;;;;;;;4.73;1.40;;;;;;;13.18;82.48;101556.81;5034199;28;20446;-67
2022/05/16 01:08:43;;;;;;;3.70;1.73;;;;;;;13.15;82.63;101563.66;5034255;28;20493;-67
2022/05/16 01:11:12;;;;;;;4.50;1.33;;;;;;;13.15;82.24;101550.06;5034260;28;20482;-67
2022/05/16 01:13:39;;;;;;;1.00;0.73;;;;;;;13.12;82.42;101558.81;5034228;28;20443;-67
2022/05/16 01:16:06;;;;;;;6.50;1.40;;;;;;;13.08;82.63;101549.63;5033427;28;20477;-67
2022/05/16 01:18:33;;;;;;;1.97;1.43;;;;;;;13.07;82.49;101554.25;5033786;28;20929;-68
2022/05/16 01:21:22;;;;;;;3.10;1.20;;;;;;;13.05;82.23;101550.19;5033952;28;20486;-68
2022/05/16 01:23:53;;;;;;;1.70;1.17;;;;;;;13.01;81.23;101541.81;5034129;28;20793;-68
2022/05/16 01:26:24;;;;;;;1.30;0.90;;;;;;;12.95;80.88;101534.84;5033913;28;20521;-68
2022/05/16 01:28:51;;;;;;;3.40;1.87;;;;;;;12.93;80.33;101547.13;5033654;28;20901;-68
2022/05/16 01:31:18;;;;;;;3.10;1.70;;;;;;;12.96;79.59;101549.22;5033890;28;20443;-68
2022/05/16 01:33:44;;;;;;;3.47;1.83;;;;;;;12.93;81.04;101545.22;5033497;28;20945;-67
2022/05/16 01:36:11;;;;;;;2.20;1.20;;;;;;;12.92;81.91;101545.47;5033425;28;21003;-67
2022/05/16 01:38:37;;;;;;;2.30;1.33;;;;;;;12.96;82.04;101549.22;5033487;28;20451;-67
2022/05/16 01:41:07;;;;;;;2.07;1.17;;;;;;;12.97;82.29;101545.41;5033579;28;20486;-67
2022/05/16 01:43:37;;;;;;;5.63;1.07;;;;;;;12.97;82.32;101546.25;5033639;28;20787;-67
2022/05/16 01:46:04;;;;;;;1.80;1.43;;;;;;;12.94;82.23;101540.56;5033242;28;20995;-66
2022/05/16 01:48:31;;;;;;;2.80;1.20;;;;;;;12.94;82.28;101540.56;5033597;28;20516;-67
2022/05/16 01:50:59;;;;;;;2.00;1.33;;;;;;;12.92;83.00;101540.84;5033553;28;20454;-67
2022/05/16 01:53:25;;;;;;;2.80;1.53;;;;;;;12.94;83.00;101540.56;5033562;28;20443;-68
2022/05/16 01:55:52;;;;;;;3.67;1.30;;;;;;;12.97;82.48;101539.97;5033087;28;20988;-67
2022/05/16 01:58:19;;;;;;;8.07;2.20;;;;;;;12.92;82.70;101529.97;5033453;28;20447;-67
2022/05/16 02:00:46;;;;;;;2.80;1.00;;;;;;;12.92;82.72;101531.88;5033281;28;20520;-68
2022/05/16 02:03:12;;;;;;;2.40;1.17;;;;;;;12.94;82.67;101532.41;5033398;28;20865;-67
2022/05/16 02:05:41;;;;;;;2.53;1.33;;;;;;;12.90;82.23;101526.75;5033527;28;20474;-67
2022/05/16 02:08:08;;;;;;;5.07;2.17;;;;;;;12.83;82.73;101529.00;5033373;28;20435;-68
2022/05/16 02:10:34;;;;;;;3.07;1.43;;;;;;;12.83;82.96;101518.94;5033334;28;20439;-68
2022/05/16 02:13:03;;;;;;;7.10;1.63;;;;;;;12.83;82.56;101521.66;5033248;28;20450;-68
2022/05/16 02:15:33;;;;;;;12.00;1.70;;;;;;;12.80;83.13;101519.53;5032804;28;20542;-68
2022/05/16 02:18:00;;;;;;;1.20;1.07;;;;;;;12.78;83.02;101521.72;5033246;28;20439;-70
2022/05/16 02:20:28;;;;;;;5.50;1.50;;;;;;;12.70;82.96;101521.56;5033118;28;20490;-70
2022/05/16 02:25:41;;;;;;;3.53;1.90;;;;;;;12.55;80.50;101509.00;5033050;28;20485;-72
2022/05/16 02:28:10;;;;;;;2.53;1.60;;;;;;;12.48;80.41;101506.63;5033122;28;20450;-72
2022/05/16 02:30:39;;;;;;;2.70;1.50;;;;;;;12.44;80.80;101510.22;5033137;28;20811;-71
2022/05/16 02:33:05;;;;;;;2.50;1.50;;;;;;;12.44;79.74;101512.94;5033308;28;20505;-71
2022/05/16 02:35:32;;;;;;;5.70;1.40;;;;;;;12.38;80.30;101512.19;5033042;28;20470;-72
2022/05/16 02:37:59;;;;;;;1.30;0.93;;;;;;;12.33;81.64;101504.91;5033043;28;20466;-71
2022/05/16 02:40:27;;;;;;;5.10;1.87;;;;;;;12.34;82.00;101490.22;5032677;28;20873;-71
2022/05/16 02:42:53;;;;;;;2.50;1.37;;;;;;;12.33;83.39;101483.19;5033012;28;20451;-71
2022/05/16 02:45:21;;;;;;;2.07;1.40;;;;;;;12.36;84.00;101488.03;5032964;28;20450;-71
2022/05/16 02:47:49;;;;;;;2.60;1.20;;;;;;;12.42;84.01;101479.81;5032920;28;20444;-67
2022/05/16 02:50:16;;;;;;;3.33;1.30;;;;;;;12.37;84.29;101495.09;5032640;28;20439;-67
2022/05/16 02:52:42;;;;;;;1.53;0.90;;;;;;;12.29;84.54;101482.13;5032900;28;20447;-68
2022/05/16 02:55:09;;;;;;;2.97;1.50;;;;;;;12.38;83.91;101485.81;5033084;28;20443;-67
2022/05/16 02:57:36;;;;;;;1.80;1.10;;;;;;;12.41;83.54;101481.72;5032830;28;20463;-67
2022/05/16 03:00:04;;;;;;;2.33;1.33;;;;;;;12.42;83.80;101486.06;5032503;28;20465;-67
2022/05/16 03:02:31;;;;;;;8.83;2.20;;;;;;;12.37;83.99;101488.84;5032448;28;20586;-67
2022/05/16 03:04:59;;;;;;;2.70;1.30;;;;;;;12.36;84.02;101479.88;5032709;28;20439;-67
2022/05/16 03:07:26;;;;;;;1.93;1.33;;;;;;;12.34;84.13;101479.34;5032410;28;20900;-67
2022/05/16 03:09:52;;;;;;;3.00;1.67;;;;;;;12.33;84.33;101479.66;5032722;28;20444;-67
2022/05/16 03:12:19;;;;;;;5.70;1.53;;;;;;;12.23;83.57;101475.16;5032720;28;20436;-67
2022/05/16 03:14:45;;;;;;;3.00;1.20;;;;;;;12.20;81.93;101473.00;5032672;28;20447;-68
2022/05/16 03:17:12;;;;;;;2.23;1.30;;;;;;;12.18;81.85;101479.84;5032221;28;20479;-67
2022/05/16 03:19:39;;;;;;;1.33;1.03;;;;;;;12.04;81.38;101482.44;5032723;28;20439;-67
2022/05/16 03:22:07;;;;;;;2.93;1.63;;;;;;;12.05;81.08;101478.63;5032565;28;20519;-68
2022/05/16 03:24:34;;;;;;;2.57;1.77;;;;;;;12.11;81.29;101485.63;5032603;28;20435;-67
2022/05/16 03:27:01;;;;;;;3.93;1.60;;;;;;;12.05;82.67;101482.16;5033386;28;20470;-67
2022/05/16 03:29:28;;;;;;;1.80;1.10;;;;;;;12.12;83.18;101477.16;5036191;28;20454;-67
2022/05/16 03:31:55;;;;;;;2.50;1.30;;;;;;;12.16;83.78;101471.97;5036101;28;20522;-68
2022/05/16 03:34:22;;;;;;;2.83;1.10;;;;;;;12.15;84.19;101464.94;5036096;28;20439;-67
2022/05/16 03:36:48;;;;;;;7.83;1.83;;;;;;;12.15;84.44;101464.94;5036020;28;20540;-67
2022/05/16 03:42:00;;;;;;;3.97;1.37;;;;;;;12.08;85.31;101469.88;5035654;28;20525;-67
2022/05/16 03:44:27;;;;;;;1.60;1.00;;;;;;;12.05;85.82;101470.50;5035878;28;20439;-68
2022/05/16 03:46:53;;;;;;;2.53;1.53;;;;;;;12.07;86.15;101466.38;5035425;28;20458;-68
2022/05/16 03:49:20;;;;;;;2.80;1.70;;;;;;;12.11;85.93;101459.25;5037304;28;20478;-67
2022/05/16 03:51:46;;;;;;;3.73;1.90;;;;;;;12.15;85.51;101459.50;5035745;28;20446;-67
2022/05/16 03:54:13;;;;;;;2.37;1.20;;;;;;;12.14;85.77;101455.16;5035740;28;20818;-67
2022/05/16 03:56:40;;;;;;;5.90;1.67;;;;;;;12.12;85.96;101462.78;5035615;28;20463;-68
2022/05/16 03:59:07;;;;;;;1.83;1.37;;;;;;;12.15;86.15;101459.50;5035296;28;20454;-68
2022/05/16 04:01:33;;;;;;;6.10;1.40;;;;;;;12.14;86.21;101462.50;5035152;28;20482;-68
2022/05/16 04:04:00;;;;;;;2.50;1.30;;;;;;;12.15;86.54;101458.69;5035189;28;20828;-67
2022/05/16 04:06:27;;;;;;;4.13;1.70;;;;;;;12.18;86.24;101452.69;5035117;28;20824;-72
2022/05/16 04:08:54;;;;;;;2.40;1.63;;;;;;;12.25;86.07;101453.94;5035244;28;20472;-71
2022/05/16 04:11:20;;;;;;;4.00;1.90;;;;;;;12.27;85.94;101457.19;5035418;28;20435;-72
2022/05/16 04:13:48;;;;;;;3.73;1.20;;;;;;;12.28;84.57;101461.50;5035329;28;20493;-72
2022/05/16 04:16:15;;;;;;;2.43;1.03;;;;;;;12.31;83.52;101457.41;5034928;28;20482;-72
2022/05/16 04:18:44;;;;;;;1.90;1.17;;;;;;;12.37;82.78;101451.63;5034952;28;20825;-72
2022/05/16 04:21:11;;;;;;;2.83;1.23;;;;;;;12.41;82.54;101451.84;5034855;28;20992;-71
2022/05/16 04:23:37;;;;;;;3.60;1.53;;;;;;;12.41;82.14;101459.19;5035210;28;20447;-70
2022/05/16 04:26:04;;;;;;;2.53;1.50;;;;;;;12.48;81.97;101454.19;5035089;28;20466;-71
2022/05/16 04:28:30;;;;;;;2.20;1.73;;;;;;;12.55;82.27;101458.16;5035083;28;20451;-72
2022/05/16 04:30:58;;;;;;;6.53;1.53;;;;;;;12.64;83.11;101461.03;5034661;28;20439;-71
2022/05/16 04:33:25;;;;;;;2.97;1.63;;;;;;;12.72;82.93;101456.88;5034977;28;20439;-72
2022/05/16 04:35:51;;;;;;;3.57;1.27;;;;;;;12.80;83.45;101459.72;5034532;28;20471;-72
2022/05/16 04:38:18;;;;;;;9.50;1.60;;;;;;;12.88;82.87;101459.06;5034738;28;20439;-72
2022/05/16 04:43:24;;;;;;;4.43;1.47;;;;;;;13.01;82.16;101448.53;5034228;28;20438;-72
2022/05/16 04:45:51;;;;;;;2.43;1.30;;;;;;;13.08;81.51;101455.22;5034743;28;20467;-72
2022/05/16 04:48:19;;;;;;;2.43;1.30;;;;;;;13.19;80.83;101455.03;5034718;28;20454;-72
2022/05/16 04:50:45;;;;;;;2.20;1.43;;;;;;;13.25;80.56;101449.25;5034657;28;20450;-72
2022/05/16 04:53:12;;;;;;;2.77;1.50;;;;;;;13.36;79.39;101455.34;5034335;28;20941;-72
2022/05/16 04:55:38;;;;;;;1.70;1.10;;;;;;;13.43;78.71;101454.97;5034189;28;20999;-71
2022/05/16 04:58:05;;;;;;;2.57;1.30;;;;;;;13.44;78.89;101446.50;5034460;28;20817;-73
2022/05/16 05:00:31;;;;;;;2.30;1.40;;;;;;;13.53;78.17;101452.84;5034473;28;20442;-73
2022/05/16 05:02:58;;;;;;;3.50;1.47;;;;;;;13.60;77.49;101444.31;5034291;28;20506;-73
2022/05/16 05:05:26;;;;;;;3.77;1.77;;;;;;;13.72;76.82;101451.97;5034285;28;20451;-73
2022/05/16 05:07:52;;;;;;;8.60;1.83;;;;;;;13.75;76.01;101452.19;5034328;28;20453;-72
2022/05/16 05:15:53;;;;;;;1.30;1.00;;;;;;;14.04;74.36;101451.13;5033794;28;20470;-72
2022/05/16 05:18:20;;;;;;;1.90;1.10;;;;;;;14.09;73.56;101445.56;5034137;28;20446;-72
2022/05/16 05:20:47;;;;;;;6.93;1.30;;;;;;;14.14;73.06;101461.78;5034045;28;20447;-72
2022/05/16 05:23:14;;;;;;;1.63;0.87;;;;;;;14.16;72.20;101451.38;5034013;28;20491;-72
2022/05/16 05:25:40;;;;;;;2.13;1.37;;;;;;;14.23;71.51;101456.44;5033888;28;20493;-72
2022/05/16 05:28:07;;;;;;;3.90;1.57;;;;;;;14.30;70.49;101452.22;5033950;28;20447;-72
2022/05/16 05:30:34;;;;;;;3.77;1.53;;;;;;;14.41;70.21;101446.53;5033787;28;20966;-72
2022/05/16 05:33:00;;;;;;;2.50;1.20;;;;;;;14.52;69.89;101459.69;5034074;28;20439;-70
2022/05/16 05:35:29;;;;;;;2.93;1.10;;;;;;;14.60;69.45;101466.31;5033558;28;20443;-70
2022/05/16 05:37:56;;;;;;;2.00;1.47;;;;;;;14.70;70.04;101471.56;5033375;28;21008;-70
2022/05/16 05:40:24;;;;;;;2.53;1.40;;;;;;;14.74;70.30;101461.66;5033643;28;20439;-70
2022/05/16 05:42:50;;;;;;;4.97;1.50;;;;;;;14.86;69.13;101464.63;5033549;28;20483;-70
2022/05/16 05:45:18;;;;;;;4.07;1.83;;;;;;;14.96;68.39;101466.28;5033651;28;20538;-73
2022/05/16 05:47:44;;;;;;;4.60;1.70;;;;;;;15.06;67.44;101468.81;5033560;28;20446;-72
2022/05/16 05:50:11;;;;;;;5.00;1.40;;;;;;;15.15;67.09;101457.94;5033017;28;20864;-71
2022/05/16 05:52:38;;;;;;;1.83;1.20;;;;;;;15.22;66.92;101461.03;5033539;28;20443;-71
2022/05/16 05:55:07;;;;;;;3.73;1.53;;;;;;;15.31;67.44;101458.38;5033189;28;20956;-71
2022/05/16 05:57:34;;;;;;;3.30;1.03;;;;;;;15.41;66.83;101463.59;5033379;28;20465;-73
2022/05/16 06:00:01;;;;;;;1.63;0.93;;;;;;;15.46;66.99;101466.19;5033367;28;20443;-72
2022/05/16 06:02:28;;;;;;;5.90;0.97;;;;;;;15.54;66.47;101465.44;5033313;28;20573;-72
2022/05/16 06:04:54;;;;;;;8.80;1.63;;;;;;;15.59;65.75;101464.50;5033372;28;20447;-72
2022/05/16 06:07:20;;;;;;;8.27;1.50;;;;;;;15.69;66.27;101464.25;5033224;28;20470;-72
2022/05/16 06:09:47;;;;;;;1.93;1.23;;;;;;;15.75;65.30;101460.25;5033269;28;20443;-70
2022/05/16 06:12:14;;;;;;;2.87;1.33;;;;;;;15.79;64.61;101457.69;5033311;28;20561;-72
2022/05/16 06:14:43;;;;;;;1.97;1.40;;;;;;;15.79;64.65;101461.22;5033141;28;20446;-69
2022/05/16 06:17:10;;;;;;;2.63;1.23;;;;;;;15.87;63.96;101467.88;5032623;28;20483;-73
2022/05/16 06:19:37;;;;;;;2.77;1.43;;;;;;;15.93;62.76;101468.53;5033234;28;20435;-76
2022/05/16 06:22:04;;;;;;;1.43;1.00;;;;;;;16.06;63.30;101462.16;5033414;28;20486;-77
2022/05/16 06:27:28;;;;;;;5.50;1.70;;;;;;;16.20;60.70;101471.03;4986162;28;20459;-77
2022/05/16 06:29:55;;;;;;;3.50;1.57;;;;;;;16.26;62.15;101467.03;5033270;28;20443;-76
2022/05/16 06:32:22;;;;;;;1.40;1.03;;;;;;;16.32;62.56;101473.97;5033200;28;20443;-76
2022/05/16 06:34:48;;;;;;;1.83;1.10;;;;;;;16.40;62.26;101469.66;5033182;28;20451;-76
2022/05/16 06:37:17;;;;;;;2.30;1.23;;;;;;;16.44;61.81;101473.34;5033311;28;20520;-76
2022/05/16 06:39:43;;;;;;;2.87;1.53;;;;;;;16.51;61.74;101472.88;5033065;28;20492;-76
2022/05/16 06:42:09;;;;;;;1.53;0.90;;;;;;;16.55;61.05;101468.38;5032914;28;20541;-76
2022/05/16 06:44:37;;;;;;;3.67;1.73;;;;;;;16.67;62.55;101474.03;5033170;28;20443;-76
2022/05/16 06:47:05;;;;;;;3.83;1.90;;;;;;;16.78;62.49;101466.38;5033054;28;20471;-76
2022/05/16 06:49:31;;;;;;;2.83;1.73;;;;;;;16.85;60.84;101472.94;5032969;28;20822;-76
2022/05/16 06:51:58;;;;;;;6.80;1.77;;;;;;;16.93;59.41;101474.06;5032666;28;20854;-77
2022/05/16 06:54:24;;;;;;;2.97;1.50;;;;;;;16.99;59.38;101466.50;5033005;28;20450;-77
2022/05/16 06:56:51;;;;;;;4.53;2.03;;;;;;;17.07;58.85;101469.25;5032978;28;20849;-76
2022/05/16 06:59:18;;;;;;;2.40;0.80;;;;;;;17.13;59.21;101476.19;5032490;28;20940;-76
2022/05/16 07:01:46;;;;;;;1.13;0.90;;;;;;;17.22;59.05;101484.38;5033783;28;20451;-76
2022/05/16 07:04:13;;;;;;;2.33;1.30;;;;;;;17.28;59.89;101469.38;5036897;28;20466;-76
2022/05/16 07:06:39;;;;;;;6.70;1.00;;;;;;;17.33;64.55;101465.66;5036538;28;20475;-75
2022/05/16 07:09:05;;;;;;;2.93;1.53;;;;;;;17.34;65.40;101461.78;5036297;28;20496;-75
2022/05/16 07:11:32;;;;;;;3.23;1.70;;;;;;;17.33;61.76;101465.66;5036669;28;20451;-76
2022/05/16 07:13:59;;;;;;;3.60;2.13;;;;;;;17.34;62.57;101468.06;5036635;28;20997;-77
2022/05/16 07:16:25;;;;;;;2.37;1.37;;;;;;;17.39;66.57;101462.41;5036122;28;20892;-76
2022/05/16 07:18:54;;;;;;;2.00;1.40;;;;;;;17.42;70.07;101473.88;5036476;28;20821;-76
2022/05/16 07:21:21;;;;;;;2.90;1.57;;;;;;;17.33;69.24;101460.19;5036979;28;20439;-77
2022/05/16 07:23:47;;;;;;;2.47;1.57;;;;;;;17.26;74.67;101463.41;5036256;28;20478;-74
2022/05/16 07:28:58;;;;;;;2.40;1.50;;;;;;;17.18;71.14;101461.53;5036159;28;20419;-70
2022/05/16 07:31:25;;;;;;;3.10;2.23;;;;;;;17.17;72.37;101462.63;5035864;28;20940;-71
2022/05/16 07:33:53;;;;;;;9.77;3.03;;;;;;;17.13;73.08;101459.75;5036270;28;20443;-75
2022/05/16 07:36:20;;;;;;;3.20;2.03;;;;;;;17.16;69.97;101463.75;5036116;28;20463;-75
2022/05/16 07:38:46;;;;;;;2.50;1.20;;;;;;;17.22;67.76;101458.91;5036351;28;20817;-75
2022/05/16 07:41:12;;;;;;;4.20;1.83;;;;;;;17.30;72.43;101471.78;5036149;28;20470;-76
2022/05/16 07:43:39;;;;;;;4.93;1.97;;;;;;;17.34;71.46;101470.00;5036378;28;20486;-75
2022/05/16 07:46:06;;;;;;;2.07;1.13;;;;;;;17.37;73.09;101464.69;5035837;28;20470;-74
2022/05/16 07:48:33;;;;;;;6.50;1.60;;;;;;;17.34;73.06;101470.00;5035674;28;20435;-75
2022/05/16 07:51:01;;;;;;;2.00;1.37;;;;;;;17.32;71.96;101459.41;5036048;28;20453;-75
2022/05/16 07:53:28;;;;;;;3.23;1.83;;;;;;;17.39;70.98;101459.69;5035783;28;20453;-75
2022/05/16 07:55:56;;;;;;;4.83;1.40;;;;;;;17.49;72.05;101457.75;5035389;28;20864;-75
2022/05/16 07:58:23;;;;;;;3.40;1.37;;;;;;;17.55;69.52;101453.69;5035467;28;20940;-75
2022/05/16 08:00:50;;;;;;;5.13;1.50;;;;;;;17.62;69.12;101462.22;5035681;28;20439;-75
2022/05/16 08:03:19;;;;;;;2.10;1.20;;;;;;;17.71;67.48;101459.44;5035584;28;20487;-75
2022/05/16 08:05:46;;;;;;;2.17;1.33;;;;;;;17.76;68.22;101457.38;5035303;28;21003;-75
2022/05/16 08:11:00;;;;;;;4.80;1.60;;;;;;;17.94;64.74;101460.03;5035386;28;20457;-76
2022/05/16 08:13:28;;;;;;;1.67;1.00;;;;;;;18.02;63.83;101448.25;5034937;28;20439;-75
2022/05/16 08:15:54;;;;;;;7.70;1.40;;;;;;;18.13;62.66;101454.94;5035042;28;20482;-75
2022/05/16 08:18:22;;;;;;;2.30;1.40;;;;;;;18.30;63.18;101454.03;5035611;28;20513;-75
2022/05/16 08:20:50;;;;;;;1.60;1.20;;;;;;;18.41;60.08;101456.06;5035251;28;20450;-76
2022/05/16 08:23:21;;;;;;;5.47;1.43;;;;;;;18.53;60.02;101449.03;5035203;28;20490;-75
2022/05/16 08:25:48;;;;;;;3.43;1.20;;;;;;;18.59;57.11;101454.03;5035280;28;20521;-75
2022/05/16 08:28:15;;;;;;;1.83;1.13;;;;;;;18.72;59.38;101446.66;5035194;28;20462;-75
2022/05/16 08:30:42;;;;;;;3.30;1.77;;;;;;;18.78;56.65;101442.59;5035226;28;20469;-75
2022/05/16 08:33:09;;;;;;;2.90;1.20;;;;;;;18.96;58.14;101442.44;5035012;28;20443;-75
2022/05/16 08:35:35;;;;;;;8.33;1.10;;;;;;;19.12;57.33;101448.91;5034617;28;20979;-75
2022/05/16 08:40:56;;;;;;;1.27;0.90;;;;;;;19.30;55.07;101450.38;5034659;28;20407;-74
2022/05/16 08:43:38;;;;;;;2.63;1.47;;;;;;;19.41;54.78;101454.28;5034874;28;20475;-74
2022/05/16 08:46:10;;;;;;;1.67;1.10;;;;;;;19.45;55.07;101443.41;5034705;28;20473;-74
2022/05/16 08:48:39;;;;;;;2.90;1.40;;;;;;;19.50;55.15;101443.19;5034818;28;20454;-74
2022/05/16 08:51:13;;;;;;;1.40;0.90;;;;;;;19.57;55.07;101448.94;5034723;28;20500;-74
2022/05/16 08:53:45;;;;;;;6.43;1.87;;;;;;;19.65;55.03;101441.75;5034783;28;20797;-75
2022/05/16 08:56:29;;;;;;;4.03;1.67;;;;;;;19.75;54.75;101444.06;5034359;28;20991;-75
2022/05/16 08:59:01;;;;;;;1.60;1.20;;;;;;;19.91;52.26;101441.44;5034618;28;20439;-75
2022/05/16 09:01:34;;;;;;;1.47;1.23;;;;;;;20.08;53.23;101446.69;5034503;28;20459;-75
2022/05/16 09:04:04;;;;;;;3.77;1.50;;;;;;;20.19;52.75;101444.31;5034276;28;20840;-75
2022/05/16 09:06:37;;;;;;;1.50;1.07;;;;;;;20.30;50.35;101439.13;5034268;28;20459;-75
2022/05/16 09:09:09;;;;;;;1.70;0.90;;;;;;;20.40;50.14;101441.38;5034375;28;20424;-75
2022/05/16 09:11:47;;;;;;;2.73;1.30;;;;;;;20.51;49.62;101444.50;5033884;28;20432;-75
2022/05/16 09:14:33;;;;;;;3.10;1.60;;;;;;;20.61;48.79;101438.50;5033894;28;20412;-75
2022/05/16 09:17:03;;;;;;;3.90;1.23;;;;;;;20.73;49.19;101432.97;5033792;28;20479;-75
2022/05/16 09:19:51;;;;;;;2.50;1.63;;;;;;;20.81;50.72;101428.50;5033857;28;20541;-73
2022/05/16 09:22:25;;;;;;;1.63;0.93;;;;;;;20.94;50.05;101419.03;5034100;28;20430;-75
2022/05/16 09:24:56;;;;;;;2.20;1.70;;;;;;;20.95;49.12;101406.84;5033318;28;20423;-75
2022/05/16 09:30:16;;;;;;;1.90;1.10;;;;;;;21.21;49.40;101402.81;5033860;28;20431;-72
2022/05/16 09:32:45;;;;;;;2.80;0.90;;;;;;;21.36;48.19;101402.06;5034348;28;20436;-72
2022/05/16 09:35:24;;;;;;;3.73;1.20;;;;;;;21.47;48.29;101413.34;5033957;28;20851;-71
2022/05/16 09:37:54;;;;;;;3.93;1.53;;;;;;;21.48;45.43;101420.47;5033600;28;20925;-71
2022/05/16 09:40:22;;;;;;;1.10;0.80;;;;;;;21.62;46.86;101409.81;5033994;28;20933;-72
2022/05/16 09:42:50;;;;;;;2.00;1.17;;;;;;;21.71;47.17;101412.38;5033771;28;20475;-75
2022/05/16 09:45:23;;;;;;;4.90;1.60;;;;;;;21.82;47.63;101403.19;5033753;28;20817;-74
2022/05/16 09:47:50;;;;;;;1.57;0.93;;;;;;;21.94;45.65;101410.56;5033744;28;20412;-73
2022/05/16 09:50:21;;;;;;;1.50;0.93;;;;;;;22.10;43.37;101405.03;5035007;28;20443;-75
2022/05/16 09:52:49;;;;;;;3.60;1.23;;;;;;;22.23;44.27;101398.28;5033663;28;20478;-74
2022/05/16 09:55:26;;;;;;;4.10;1.20;;;;;;;22.23;45.25;101398.28;5033472;28;20457;-75
2022/05/16 09:57:58;;;;;;;1.93;1.17;;;;;;;22.17;43.66;101413.50;5033581;28;20796;-74
2022/05/16 10:00:33;;;;;;;3.70;1.13;;;;;;;22.16;47.17;101406.38;5033533;28;20419;-75
2022/05/16 10:03:13;;;;;;;3.47;1.73;;;;;;;22.23;46.42;101408.53;5033199;28;20593;-75
2022/05/16 10:05:45;;;;;;;2.20;1.40;;;;;;;22.22;45.38;101413.22;5033436;28;20553;-75
2022/05/16 10:08:16;;;;;;;1.53;1.07;;;;;;;22.28;45.33;101409.03;5033150;28;20920;-72
2022/05/16 10:10:45;;;;;;;1.27;0.93;;;;;;;22.31;42.48;101404.72;5033504;28;20522;-71
2022/05/16 10:13:13;;;;;;;1.50;0.80;;;;;;;22.38;44.03;101397.41;5033470;28;20545;-76
2022/05/16 10:15:40;;;;;;;3.00;1.30;;;;;;;22.45;43.99;101396.78;5033112;28;20490;-74
2022/05/16 10:18:13;;;;;;;3.93;1.40;;;;;;;22.52;44.88;101393.34;5033341;28;20477;-74
2022/05/16 10:20:45;;;;;;;1.53;1.17;;;;;;;22.60;43.30;101395.09;5033400;28;20431;-75
2022/05/16 10:23:19;;;;;;;1.57;0.93;;;;;;;22.74;42.23;101400.91;5032867;28;20987;-74
2022/05/16 10:25:47;;;;;;;1.43;0.83;;;;;;;22.82;42.91;101388.84;5033089;28;20489;-74
2022/05/16 10:28:20;;;;;;;2.60;1.33;;;;;;;22.90;43.05;101390.63;5033187;28;20498;-74
2022/05/16 10:33:35;;;;;;;2.53;1.30;;;;;;;23.17;43.24;101393.47;5033014;28;20502;-74
2022/05/16 10:36:08;;;;;;;0.97;0.83;;;;;;;23.27;41.44;101375.47;5034438;28;20513;-74
2022/05/16 10:38:43;;;;;;;1.83;1.23;;;;;;;23.28;42.10;101377.88;5037373;28;20434;-75
2022/05/16 10:41:14;;;;;;;1.00;0.70;;;;;;;23.28;42.81;101375.09;5037225;28;20439;-75
2022/05/16 10:43:53;;;;;;;2.00;1.20;;;;;;;23.36;41.00;101374.06;5037078;28;20567;-74
2022/05/16 10:46:26;;;;;;;2.77;1.10;;;;;;;23.50;42.15;101372.72;5037084;28;20561;-76
2022/05/16 10:48:56;;;;;;;5.70;1.07;;;;;;;23.74;42.11;101372.34;5037148;28;20420;-76
2022/05/16 10:51:31;;;;;;;1.90;1.33;;;;;;;23.87;40.04;101365.44;5036952;28;20451;-76
2022/05/16 10:54:05;;;;;;;7.77;1.17;;;;;;;24.06;40.73;101358.97;5037054;28;20431;-75
2022/05/16 10:57:07;;;;;;;2.17;0.80;;;;;;;24.17;39.90;101356.34;5036840;28;20512;-75
2022/05/16 10:59:50;;;;;;;1.83;0.87;;;;;;;24.40;39.04;101361.84;5032998;28;20454;-74
2022/05/16 11:02:26;;;;;;;1.20;0.87;;;;;;;24.77;38.65;101350.78;5037066;28;20769;-75
2022/05/16 11:05:17;;;;;;;1.47;0.97;;;;;;;25.11;39.18;101342.47;5036698;28;20474;-75
2022/05/16 11:07:52;;;;;;;2.80;1.10;;;;;;;25.42;37.34;101347.47;5036633;28;20490;-75
2022/05/16 11:10:25;;;;;;;2.53;1.17;;;;;;;25.37;35.54;101350.59;5036680;28;20464;-76
2022/05/16 11:13:00;;;;;;;1.63;0.90;;;;;;;25.80;37.49;101345.38;5036579;28;20518;-76
2022/05/16 11:15:34;;;;;;;1.93;1.07;;;;;;;26.52;36.90;101362.44;5036292;28;20462;-76
2022/05/16 11:18:10;;;;;;;4.57;1.30;;;;;;;27.00;33.99;101359.41;5036715;28;20427;-73
2022/05/16 11:20:42;;;;;;;1.37;1.07;;;;;;;27.74;31.74;101358.66;5036137;28;20954;-71
2022/05/16 11:23:22;;;;;;;1.77;0.80;;;;;;;28.54;32.14;101351.69;5037033;28;20446;-74
2022/05/16 11:25:53;;;;;;;1.43;1.00;;;;;;;29.39;31.91;101359.50;5035945;28;21006;-74
2022/05/16 11:28:31;;;;;;;1.30;1.10;;;;;;;30.37;30.27;101365.72;5036140;28;20443;-76
2022/05/16 11:31:04;;;;;;;3.37;0.90;;;;;;;31.37;29.32;101361.50;5036435;28;20427;-75
2022/05/16 11:33:38;;;;;;;1.10;0.80;;;;;;;31.69;26.86;101363.75;5036308;28;20435;-75
2022/05/16 11:36:08;;;;;;;1.10;0.73;;;;;;;31.54;27.70;101371.63;5036376;28;20521;-75
2022/05/16 11:38:44;;;;;;;1.27;0.80;;;;;;;31.65;28.57;101363.03;5036020;28;20872;-76
2022/05/16 11:41:24;;;;;;;1.50;0.90;;;;;;;31.54;27.12;101354.81;5035891;28;20953;-77
2022/05/16 11:43:52;;;;;;;1.80;0.90;;;;;;;31.69;27.99;101355.34;5036070;28;20498;-76
2022/05/16 11:46:27;;;;;;;1.30;0.70;;;;;;;32.03;29.06;101357.16;5035732;28;20467;-76
2022/05/16 11:49:04;;;;;;;1.90;0.80;;;;;;;32.89;28.76;101356.09;5034674;28;20905;-75
2022/05/16 11:51:45;;;;;;;2.73;0.83;;;;;;;33.31;26.70;101351.50;5035856;28;20423;-75
2022/05/16 11:54:16;;;;;;;1.97;0.90;;;;;;;33.82;26.50;101342.56;5035549;28;20424;-76
2022/05/16 12:02:22;;;;;;;1.23;0.70;;;;;;;34.15;25.07;101348.91;5035578;28;20408;-75
2022/05/16 12:04:51;;;;;;;0.83;0.60;;;;;;;34.13;24.72;101342.91;5035615;28;20467;-75
2022/05/16 12:07:30;;;;;;;4.40;0.80;;;;;;;34.60;24.95;101337.50;5035495;28;20466;-75
2022/05/16 12:10:00;;;;;;;1.47;0.80;;;;;;;34.78;24.97;101342.56;5035568;28;20427;-74
2022/05/16 12:12:40;;;;;;;3.00;0.67;;;;;;;34.53;24.73;101336.94;5035485;28;20439;-75